Time;durP1;ratioP1;P1;durP2;ratioP2;P2;SDS_P1;SDS_P2;PMS_P1;PMS_P2;Temp;Humidity;BMP_temperature;BMP_pressure;BME280_temperature;BME280_humidity;BME280_pressure;Samples;Min_cycle;Max_cycle;Signal;HPM_P1;HPM_P2
2022/03/18 00:00:17;;;;;;;14.27;8.52;;;11.70;48.30;;;;;;5113583;28;20168;-19
2022/03/18 00:02:44;;;;;;;14.32;9.15;;;11.70;48.30;;;;;;5113558;28;20032;-19
2022/03/18 00:05:10;;;;;;;15.35;9.60;;;11.70;48.30;;;;;;5113708;28;20035;-18
2022/03/18 00:07:36;;;;;;;13.23;9.40;;;11.60;48.40;;;;;;5113213;28;20032;-19
2022/03/18 00:10:02;;;;;;;15.57;10.65;;;11.60;48.50;;;;;;5113646;28;20112;-18
2022/03/18 00:12:28;;;;;;;17.05;10.55;;;11.60;48.60;;;;;;5113683;28;20031;-18
2022/03/18 00:14:54;;;;;;;16.55;10.02;;;11.60;48.80;;;;;;5113252;28;20027;-19
2022/03/18 00:17:20;;;;;;;13.00;7.95;;;11.50;49.10;;;;;;5113218;28;20055;-19
2022/03/18 00:19:46;;;;;;;18.05;12.05;;;11.50;48.90;;;;;;5113441;28;20122;-19
2022/03/18 00:22:13;;;;;;;18.48;11.02;;;11.50;49.00;;;;;;5113573;28;20020;-18
2022/03/18 00:24:39;;;;;;;11.45;7.50;;;11.40;49.10;;;;;;5113473;28;20454;-19
2022/03/18 00:27:05;;;;;;;13.35;8.75;;;11.40;48.90;;;;;;5111922;28;20498;-19
2022/03/18 00:29:32;;;;;;;15.20;9.48;;;11.30;48.80;;;;;;5113437;28;20023;-19
2022/03/18 00:31:59;;;;;;;14.35;9.30;;;11.40;48.90;;;;;;5113084;28;20479;-19
2022/03/18 00:34:25;;;;;;;11.38;7.35;;;11.30;48.90;;;;;;5113197;28;20093;-19
2022/03/18 00:36:53;;;;;;;11.77;6.95;;;11.30;48.90;;;;;;5113257;28;20495;-19
2022/03/18 00:39:19;;;;;;;10.82;6.70;;;11.30;48.80;;;;;;5113272;28;20046;-19
2022/03/18 00:41:45;;;;;;;9.85;5.40;;;11.30;48.80;;;;;;5113491;28;20028;-18
2022/03/18 00:44:11;;;;;;;9.20;5.57;;;11.30;48.90;;;;;;5112972;28;20066;-19
2022/03/18 00:46:37;;;;;;;10.95;6.50;;;11.20;48.90;;;;;;5113416;28;20059;-19
2022/03/18 00:52:05;;;;;;;;;;;11.20;48.90;;;;;;5113604;28;20112;-19
2022/03/18 00:54:33;;;;;;;8.63;4.87;;;11.10;49.20;;;;;;5115312;28;19957;-19
2022/03/18 00:57:00;;;;;;;8.15;4.82;;;11.10;48.90;;;;;;5117028;28;20080;-19
2022/03/18 00:59:26;;;;;;;13.60;8.77;;;11.10;48.90;;;;;;5116592;28;20024;-19
2022/03/18 01:01:52;;;;;;;11.25;7.18;;;11.00;49.10;;;;;;5116442;27;20031;-20
2022/03/18 01:04:23;;;;;;;11.18;7.82;;;11.00;49.10;;;;;;5116465;28;20073;-20
2022/03/18 01:06:52;;;;;;;14.35;8.95;;;11.00;49.10;;;;;;5116751;28;20026;-19
2022/03/18 01:09:19;;;;;;;13.23;8.82;;;11.00;49.00;;;;;;5116287;28;20067;-19
2022/03/18 01:11:46;;;;;;;12.30;7.70;;;10.90;49.10;;;;;;5116534;28;20102;-19
2022/03/18 01:14:13;;;;;;;12.90;8.30;;;10.90;49.10;;;;;;5116203;28;20027;-19
2022/03/18 01:16:39;;;;;;;12.00;7.80;;;10.90;49.10;;;;;;5116319;28;20039;-19
2022/03/18 01:19:05;;;;;;;11.73;7.70;;;10.90;49.10;;;;;;5116445;28;20115;-19
2022/03/18 01:21:31;;;;;;;10.93;6.50;;;10.90;49.10;;;;;;5116013;28;20028;-19
2022/03/18 01:23:57;;;;;;;11.68;6.65;;;10.90;49.00;;;;;;5115984;28;20024;-19
2022/03/18 01:26:25;;;;;;;9.50;5.88;;;10.80;49.00;;;;;;5116626;28;20023;-20
2022/03/18 01:28:52;;;;;;;9.85;5.53;;;10.80;49.10;;;;;;5117109;28;20035;-19
2022/03/18 01:31:18;;;;;;;9.00;5.40;;;10.80;49.10;;;;;;5116159;28;20031;-19
2022/03/18 01:33:45;;;;;;;9.88;6.03;;;10.70;49.10;;;;;;5116163;28;20027;-19
2022/03/18 01:36:11;;;;;;;10.90;6.13;;;10.70;49.10;;;;;;5116103;28;20034;-19
2022/03/18 01:38:37;;;;;;;9.00;4.75;;;10.70;49.20;;;;;;5115529;28;20035;-19
2022/03/18 01:41:03;;;;;;;11.43;7.28;;;10.70;49.20;;;;;;5116283;28;20375;-19
2022/03/18 01:43:38;;;;;;;15.65;9.40;;;10.60;49.20;;;;;;5115600;28;20034;-19
2022/03/18 01:46:05;;;;;;;18.85;12.57;;;10.60;49.20;;;;;;5115627;28;20437;-19
2022/03/18 01:48:31;;;;;;;14.48;8.82;;;10.50;49.30;;;;;;5115395;28;20032;-19
2022/03/18 01:50:58;;;;;;;13.20;8.57;;;10.50;49.40;;;;;;5115480;28;20019;-20
2022/03/18 01:53:25;;;;;;;12.85;9.05;;;10.40;49.40;;;;;;5115550;28;20441;-19
2022/03/18 01:55:52;;;;;;;14.65;8.88;;;10.40;49.50;;;;;;5115462;28;20027;-19
2022/03/18 01:58:18;;;;;;;13.07;8.70;;;10.40;49.50;;;;;;5115018;28;20028;-20
2022/03/18 02:00:43;;;;;;;17.15;10.85;;;10.40;49.60;;;;;;5115606;28;20110;-19
2022/03/18 02:03:09;;;;;;;16.90;10.27;;;10.40;50.00;;;;;;5115273;28;20023;-19
2022/03/18 02:05:35;;;;;;;15.70;10.52;;;10.30;50.10;;;;;;5114748;28;20035;-19
2022/03/18 02:08:06;;;;;;;21.08;13.95;;;10.30;50.00;;;;;;5115223;28;20076;-19
2022/03/18 02:10:33;;;;;;;19.48;13.18;;;10.40;50.10;;;;;;5115161;28;20475;-19
2022/03/18 02:12:59;;;;;;;17.98;11.48;;;10.30;50.20;;;;;;5115024;28;20425;-19
2022/03/18 02:15:25;;;;;;;20.73;11.85;;;10.30;50.30;;;;;;5113756;28;20024;-19
2022/03/18 02:17:51;;;;;;;19.83;13.40;;;10.30;50.30;;;;;;5114781;28;20055;-19
2022/03/18 02:20:17;;;;;;;20.27;13.43;;;10.30;50.40;;;;;;5114998;28;20039;-19
2022/03/18 02:22:43;;;;;;;20.45;12.27;;;10.40;50.40;;;;;;5115095;28;20076;-19
2022/03/18 02:25:12;;;;;;;18.67;12.25;;;10.40;50.30;;;;;;5115121;28;20171;-19
2022/03/18 02:27:41;;;;;;;16.63;10.52;;;10.40;50.30;;;;;;5114739;28;20039;-19
2022/03/18 02:30:08;;;;;;;23.52;13.85;;;10.40;50.20;;;;;;5115006;28;20106;-19
2022/03/18 02:32:36;;;;;;;19.90;12.88;;;10.40;50.20;;;;;;5114460;28;20540;-19
2022/03/18 02:35:02;;;;;;;20.00;12.13;;;10.40;50.10;;;;;;5114929;27;20020;-19
2022/03/18 02:37:29;;;;;;;18.27;12.77;;;10.40;50.10;;;;;;5114785;28;20020;-19
2022/03/18 02:39:59;;;;;;;17.38;11.23;;;10.50;50.10;;;;;;5114678;28;20024;-19
2022/03/18 02:42:25;;;;;;;18.52;11.43;;;10.40;49.90;;;;;;5114544;28;20028;-20
2022/03/18 02:44:51;;;;;;;18.35;11.07;;;10.50;50.10;;;;;;5114944;28;20357;-20
2022/03/18 02:47:16;;;;;;;24.20;15.50;;;10.50;50.10;;;;;;5114699;28;20027;-19
2022/03/18 02:49:42;;;;;;;17.30;11.73;;;10.50;50.10;;;;;;5114771;28;20023;-19
2022/03/18 02:52:09;;;;;;;17.52;10.82;;;10.50;50.10;;;;;;5114445;28;20100;-19
2022/03/18 02:54:35;;;;;;;15.77;10.40;;;10.50;50.00;;;;;;5114333;28;20468;-19
2022/03/18 02:57:01;;;;;;;15.10;9.15;;;10.50;49.80;;;;;;5114519;28;20069;-19
2022/03/18 02:59:27;;;;;;;19.25;11.75;;;10.50;49.70;;;;;;5114445;28;20059;-19
2022/03/18 03:01:52;;;;;;;16.67;10.75;;;10.60;49.70;;;;;;5114270;28;20387;-19
2022/03/18 03:04:19;;;;;;;13.45;8.00;;;10.50;49.60;;;;;;5113851;28;20027;-20
2022/03/18 03:09:35;;;;;;;16.00;9.82;;;10.60;49.60;;;;;;5114368;28;20490;-19
2022/03/18 03:12:01;;;;;;;14.18;9.13;;;10.60;49.50;;;;;;5114262;28;20023;-19
2022/03/18 03:14:27;;;;;;;15.48;9.77;;;10.60;49.60;;;;;;5113720;27;20028;-19
2022/03/18 03:16:53;;;;;;;17.17;11.63;;;10.60;49.60;;;;;;5112933;28;20052;-19
2022/03/18 03:19:19;;;;;;;21.10;12.80;;;10.60;49.50;;;;;;5114027;28;20049;-19
2022/03/18 03:21:45;;;;;;;19.38;12.45;;;10.60;49.70;;;;;;5113822;28;20118;-20
2022/03/18 03:24:11;;;;;;;19.15;11.90;;;10.60;49.60;;;;;;5114042;28;20023;-20
2022/03/18 03:26:37;;;;;;;18.73;13.00;;;10.60;49.60;;;;;;5113637;28;20020;-20
2022/03/18 03:29:03;;;;;;;24.40;13.35;;;10.60;49.60;;;;;;5114061;28;20117;-20
2022/03/18 03:31:29;;;;;;;21.90;14.05;;;10.60;49.60;;;;;;5114003;28;20027;-20
2022/03/18 03:33:55;;;;;;;19.35;10.68;;;10.60;49.70;;;;;;5113712;28;20467;-20
2022/03/18 03:36:23;;;;;;;15.60;9.77;;;10.60;49.60;;;;;;5113374;28;20027;-20
2022/03/18 03:38:49;;;;;;;18.90;11.43;;;10.60;49.50;;;;;;5113446;28;20422;-20
2022/03/18 03:41:20;;;;;;;18.20;9.85;;;10.60;49.50;;;;;;5113888;28;20062;-19
2022/03/18 03:43:46;;;;;;;15.95;9.57;;;10.60;49.50;;;;;;5113983;28;20506;-20
2022/03/18 03:46:12;;;;;;;14.52;9.10;;;10.60;49.50;;;;;;5113544;28;20059;-19
2022/03/18 03:48:38;;;;;;;13.63;8.57;;;10.60;49.50;;;;;;5114145;28;20056;-20
2022/03/18 03:51:04;;;;;;;15.75;9.65;;;10.60;49.50;;;;;;5113507;28;20027;-20
2022/03/18 03:53:30;;;;;;;12.00;7.18;;;10.60;49.50;;;;;;5112193;28;20034;-19
2022/03/18 03:55:56;;;;;;;9.32;5.88;;;10.60;49.50;;;;;;5113777;28;20027;-20
2022/03/18 03:58:22;;;;;;;10.48;6.07;;;10.60;49.40;;;;;;5113168;28;20070;-19
2022/03/18 04:00:48;;;;;;;10.25;5.75;;;10.60;49.40;;;;;;5113376;28;20035;-20
2022/03/18 04:03:14;;;;;;;10.15;5.97;;;10.60;49.40;;;;;;5113668;28;20030;-20
2022/03/18 04:05:41;;;;;;;8.85;5.45;;;10.60;49.40;;;;;;5113663;28;20539;-20
2022/03/18 04:08:07;;;;;;;8.93;5.22;;;10.60;49.40;;;;;;5113523;28;20035;-20
2022/03/18 04:10:33;;;;;;;10.25;5.82;;;10.50;49.40;;;;;;5113085;28;20470;-20
2022/03/18 04:12:59;;;;;;;11.95;6.82;;;10.50;49.50;;;;;;5113590;28;20023;-20
2022/03/18 04:15:26;;;;;;;15.98;9.65;;;10.50;49.40;;;;;;5113292;28;20117;-20
2022/03/18 04:17:52;;;;;;;13.77;8.43;;;10.50;49.50;;;;;;5112977;28;20051;-20
2022/03/18 04:20:22;;;;;;;10.30;5.90;;;10.50;49.50;;;;;;5113339;28;20394;-20
2022/03/18 04:22:49;;;;;;;10.30;6.00;;;10.40;49.50;;;;;;5113757;28;20101;-20
2022/03/18 04:25:15;;;;;;;11.00;6.20;;;10.40;49.50;;;;;;5113396;28;20055;-20
2022/03/18 04:27:42;;;;;;;11.27;6.72;;;10.40;49.50;;;;;;5114706;28;20051;-20
2022/03/18 04:30:10;;;;;;;10.10;6.68;;;10.40;49.50;;;;;;5117061;28;20031;-19
2022/03/18 04:32:37;;;;;;;12.52;6.72;;;10.40;49.50;;;;;;5117113;27;20471;-20
2022/03/18 04:35:05;;;;;;;12.25;7.35;;;10.40;49.50;;;;;;5117285;28;20080;-20
2022/03/18 04:37:31;;;;;;;10.77;6.75;;;10.30;49.50;;;;;;5116814;28;20020;-20
2022/03/18 04:39:57;;;;;;;10.40;6.80;;;10.30;49.60;;;;;;5117317;28;20027;-19
2022/03/18 04:42:23;;;;;;;12.15;7.78;;;10.30;49.60;;;;;;5116996;27;20028;-20
2022/03/18 04:44:48;;;;;;;14.30;8.13;;;10.30;49.60;;;;;;5117037;27;20020;-20
2022/03/18 04:47:15;;;;;;;16.67;8.90;;;10.30;49.70;;;;;;5117099;28;20048;-20
2022/03/18 04:49:41;;;;;;;13.80;7.32;;;10.20;49.70;;;;;;5115455;28;20125;-20
2022/03/18 04:52:07;;;;;;;14.18;9.05;;;10.20;49.80;;;;;;5116554;28;20533;-20
2022/03/18 04:54:33;;;;;;;14.82;9.38;;;10.20;49.70;;;;;;5116478;28;20024;-20
2022/03/18 04:59:44;;;;;;;15.93;10.63;;;10.10;49.80;;;;;;5116553;28;20517;-20
2022/03/18 05:02:10;;;;;;;11.90;6.97;;;10.10;49.90;;;;;;5116785;28;20032;-20
2022/03/18 05:04:38;;;;;;;14.07;7.72;;;10.00;49.90;;;;;;5116235;28;20073;-19
2022/03/18 05:07:05;;;;;;;9.70;6.00;;;10.00;49.90;;;;;;5116626;28;20020;-20
2022/03/18 05:09:31;;;;;;;9.32;6.05;;;9.90;49.90;;;;;;5117506;28;20048;-20
2022/03/18 05:11:57;;;;;;;10.65;6.63;;;9.90;49.90;;;;;;5116600;28;20368;-19
2022/03/18 05:14:23;;;;;;;13.07;7.05;;;9.90;50.00;;;;;;5116328;28;20032;-20
2022/03/18 05:16:49;;;;;;;10.70;6.72;;;9.80;50.20;;;;;;5116137;27;20052;-20
2022/03/18 05:19:15;;;;;;;16.33;9.50;;;9.80;50.10;;;;;;5116067;28;20114;-20
2022/03/18 05:21:41;;;;;;;13.70;6.88;;;9.70;50.20;;;;;;5116056;28;20118;-20
2022/03/18 05:24:08;;;;;;;9.98;5.75;;;9.70;50.30;;;;;;5116300;28;20076;-20
2022/03/18 05:26:34;;;;;;;8.48;4.88;;;9.60;50.30;;;;;;5115788;28;20032;-20
2022/03/18 05:29:01;;;;;;;9.13;5.50;;;9.60;50.30;;;;;;5116570;28;20100;-20
2022/03/18 05:31:27;;;;;;;7.28;4.50;;;9.50;50.30;;;;;;5116235;28;20028;-20
2022/03/18 05:33:56;;;;;;;7.55;4.70;;;9.50;50.40;;;;;;5116228;28;20032;-20
2022/03/18 05:36:22;;;;;;;8.75;4.45;;;9.50;50.40;;;;;;5114310;28;20038;-20
2022/03/18 05:38:48;;;;;;;11.70;6.55;;;9.40;50.50;;;;;;5114896;28;20036;-20
2022/03/18 05:41:14;;;;;;;9.75;6.30;;;9.40;50.60;;;;;;5115672;28;20020;-19
2022/03/18 05:43:40;;;;;;;9.48;5.32;;;9.30;50.60;;;;;;5115785;28;20422;-20
2022/03/18 05:46:07;;;;;;;9.02;5.22;;;9.30;50.70;;;;;;5115931;28;20073;-20
2022/03/18 05:48:33;;;;;;;10.80;6.30;;;9.20;50.70;;;;;;5115634;28;20096;-20
2022/03/18 05:51:00;;;;;;;11.68;6.65;;;9.20;50.70;;;;;;5116135;28;20418;-19
2022/03/18 05:53:28;;;;;;;16.70;10.00;;;9.10;50.80;;;;;;5115701;28;20028;-20
2022/03/18 05:58:41;;;;;;;14.50;9.27;;;9.10;51.10;;;;;;5115855;28;20039;-20
2022/03/18 06:01:07;;;;;;;24.70;15.43;;;9.10;51.30;;;;;;5115317;28;20486;-20
2022/03/18 06:03:33;;;;;;;19.52;12.18;;;9.10;51.60;;;;;;5115293;28;20029;-20
2022/03/18 06:05:59;;;;;;;21.90;12.23;;;9.10;51.60;;;;;;5115551;27;20023;-20
2022/03/18 06:13:55;;;;;;;17.85;11.05;;;9.10;51.80;;;;;;5115436;28;20111;-20
2022/03/18 06:16:21;;;;;;;27.55;15.95;;;9.10;51.70;;;;;;5114749;28;20126;-19
2022/03/18 06:18:47;;;;;;;24.85;15.52;;;9.10;52.30;;;;;;5114901;28;20487;-20
2022/03/18 06:21:15;;;;;;;24.83;16.05;;;9.10;52.20;;;;;;5115224;28;20024;-20
2022/03/18 06:23:41;;;;;;;22.65;14.57;;;9.20;52.10;;;;;;5114778;28;20023;-20
2022/03/18 06:26:07;;;;;;;21.15;14.32;;;9.20;52.00;;;;;;5115153;28;20024;-20
2022/03/18 06:28:33;;;;;;;21.58;13.32;;;9.30;52.40;;;;;;5114826;28;20027;-20
2022/03/18 06:30:59;;;;;;;22.73;13.27;;;9.30;52.20;;;;;;5115059;28;20502;-20
2022/03/18 06:33:27;;;;;;;18.05;11.98;;;9.40;52.00;;;;;;5115498;28;20027;-19
2022/03/18 06:35:53;;;;;;;18.98;10.93;;;9.40;51.60;;;;;;5114592;28;20400;-19
2022/03/18 06:38:19;;;;;;;25.23;15.73;;;9.50;51.60;;;;;;5114201;27;20391;-20
2022/03/18 06:40:45;;;;;;;19.30;12.23;;;9.50;51.90;;;;;;5114828;28;20024;-20
2022/03/18 06:43:11;;;;;;;21.27;14.10;;;9.60;51.50;;;;;;5114538;28;20028;-19
2022/03/18 06:45:37;;;;;;;24.10;13.95;;;9.70;51.80;;;;;;5114701;28;20053;-19
2022/03/18 06:48:03;;;;;;;22.48;14.82;;;9.80;51.60;;;;;;5114389;28;20472;-19
2022/03/18 06:50:29;;;;;;;27.23;16.20;;;9.80;51.60;;;;;;5114356;28;20073;-20
2022/03/18 06:52:55;;;;;;;24.30;15.95;;;9.90;51.60;;;;;;5114330;28;20020;-19
2022/03/18 06:55:21;;;;;;;19.40;11.93;;;10.00;51.50;;;;;;5114241;28;20028;-20
2022/03/18 06:57:48;;;;;;;22.52;14.80;;;10.10;51.40;;;;;;5114460;28;20019;-20
2022/03/18 07:00:15;;;;;;;21.45;13.32;;;10.10;51.60;;;;;;5114293;28;20032;-21
2022/03/18 07:02:41;;;;;;;30.70;19.13;;;10.20;51.40;;;;;;5114171;28;20032;-20
2022/03/18 07:05:08;;;;;;;30.27;19.38;;;10.30;51.80;;;;;;5114140;28;20059;-20
2022/03/18 07:07:34;;;;;;;30.30;17.67;;;10.40;51.60;;;;;;5112736;28;20144;-19
2022/03/18 07:10:07;;;;;;;28.20;16.67;;;10.50;51.50;;;;;;5114043;28;20487;-20
2022/03/18 07:12:33;;;;;;;27.73;17.55;;;10.60;51.30;;;;;;5113958;28;20027;-20
2022/03/18 07:14:59;;;;;;;27.38;17.60;;;10.70;51.30;;;;;;5114809;28;20024;-19
2022/03/18 07:20:12;;;;;;;29.40;18.02;;;10.90;51.30;;;;;;5113978;28;20072;-20
2022/03/18 07:22:41;;;;;;;24.55;15.40;;;11.00;51.20;;;;;;5113772;28;20540;-20
2022/03/18 07:25:08;;;;;;;25.83;16.33;;;11.10;51.10;;;;;;5114412;28;20101;-20
2022/03/18 07:27:34;;;;;;;25.88;16.60;;;11.20;50.80;;;;;;5113816;28;20123;-20
2022/03/18 07:30:00;;;;;;;30.88;16.98;;;11.30;50.60;;;;;;5114062;28;20044;-20
2022/03/18 07:32:26;;;;;;;28.30;17.70;;;11.40;50.70;;;;;;5113819;28;20031;-20
2022/03/18 07:34:51;;;;;;;31.48;18.90;;;11.50;50.50;;;;;;5114061;28;20455;-20
2022/03/18 07:37:17;;;;;;;25.33;16.40;;;11.60;50.70;;;;;;5113972;28;20074;-20
2022/03/18 07:39:43;;;;;;;25.55;16.52;;;11.70;50.40;;;;;;5114151;28;20024;-20
2022/03/18 07:42:09;;;;;;;26.52;17.65;;;11.80;50.10;;;;;;5113884;28;20035;-20
2022/03/18 07:44:36;;;;;;;26.30;18.20;;;11.90;49.90;;;;;;5113460;28;20053;-19
2022/03/18 07:47:03;;;;;;;22.98;14.63;;;12.00;49.80;;;;;;5113534;28;20036;-19
2022/03/18 07:49:29;;;;;;;26.67;16.95;;;12.00;49.70;;;;;;5113507;28;20035;-20
2022/03/18 07:51:55;;;;;;;27.33;18.05;;;12.20;49.40;;;;;;5113798;28;20027;-20
2022/03/18 07:54:21;;;;;;;25.02;16.85;;;12.30;49.30;;;;;;5113284;28;20020;-19
2022/03/18 07:56:47;;;;;;;23.98;15.18;;;12.30;49.20;;;;;;5113721;28;20032;-19
2022/03/18 07:59:13;;;;;;;26.55;17.88;;;12.40;49.20;;;;;;5113374;28;20118;-19
2022/03/18 08:01:40;;;;;;;25.40;16.90;;;12.40;48.90;;;;;;5113573;28;20506;-19
2022/03/18 08:04:08;;;;;;;25.88;17.00;;;12.60;49.00;;;;;;5117172;28;20037;-19
2022/03/18 08:06:35;;;;;;;23.67;15.35;;;12.60;49.00;;;;;;5117750;28;20059;-19
2022/03/18 08:09:02;;;;;;;24.25;15.15;;;12.70;48.90;;;;;;5117730;28;20472;-19
2022/03/18 08:11:28;;;;;;;23.02;15.23;;;12.80;48.50;;;;;;5117398;28;20032;-19
2022/03/18 08:13:54;;;;;;;29.35;19.10;;;12.90;48.30;;;;;;5116170;28;20049;-19
2022/03/18 08:16:22;;;;;;;25.08;17.02;;;12.90;48.00;;;;;;5117165;28;20044;-20
2022/03/18 08:18:48;;;;;;;27.52;17.33;;;13.00;47.80;;;;;;5117330;28;20044;-19
2022/03/18 08:21:15;;;;;;;26.90;15.43;;;13.10;47.80;;;;;;5117271;28;20019;-19
2022/03/18 08:23:41;;;;;;;28.83;17.27;;;13.20;47.50;;;;;;5117422;28;20023;-19
2022/03/18 08:26:07;;;;;;;27.38;16.30;;;13.30;47.20;;;;;;5117158;28;20409;-19
2022/03/18 08:28:33;;;;;;;25.77;16.40;;;13.30;47.00;;;;;;5116924;28;20030;-20
2022/03/18 08:30:59;;;;;;;22.23;14.68;;;13.30;47.10;;;;;;5117710;28;20022;-19
2022/03/18 08:33:26;;;;;;;23.70;15.45;;;13.40;47.10;;;;;;5117137;28;20099;-19
2022/03/18 08:35:51;;;;;;;24.75;14.98;;;13.50;46.80;;;;;;5117304;27;20528;-19
2022/03/18 08:38:17;;;;;;;21.50;14.90;;;13.50;47.10;;;;;;5116557;28;20035;-20
2022/03/18 08:40:43;;;;;;;24.17;15.52;;;13.60;46.80;;;;;;5115704;28;20028;-19
2022/03/18 08:43:09;;;;;;;21.00;14.85;;;13.70;46.50;;;;;;5117233;28;20061;-19
2022/03/18 08:45:36;;;;;;;26.58;16.42;;;13.70;46.20;;;;;;5116810;28;20016;-19
2022/03/18 08:48:04;;;;;;;23.73;15.55;;;13.80;46.20;;;;;;5116697;28;20467;-19
2022/03/18 08:50:31;;;;;;;25.95;15.70;;;13.90;46.00;;;;;;5116533;28;20492;-19
2022/03/18 08:52:57;;;;;;;21.25;14.93;;;13.90;46.10;;;;;;5116566;28;20019;-19
2022/03/18 08:55:24;;;;;;;25.98;16.73;;;13.90;45.60;;;;;;5116928;28;20027;-19
2022/03/18 08:57:50;;;;;;;21.52;15.27;;;14.00;45.50;;;;;;5117717;28;20043;-19
2022/03/18 09:00:18;;;;;;;23.15;14.60;;;14.00;45.40;;;;;;5116344;28;20440;-19
2022/03/18 09:02:45;;;;;;;22.02;15.38;;;14.10;45.40;;;;;;5116474;28;20036;-20
2022/03/18 09:05:12;;;;;;;21.85;15.20;;;14.10;45.30;;;;;;5116494;28;20031;-19
2022/03/18 09:07:39;;;;;;;21.20;14.07;;;14.20;45.50;;;;;;5116626;28;20102;-20
2022/03/18 09:10:08;;;;;;;24.23;14.52;;;14.30;45.20;;;;;;5116366;28;20020;-19
2022/03/18 09:12:34;;;;;;;23.85;13.27;;;14.40;45.00;;;;;;5116131;28;20028;-20
2022/03/18 09:15:02;;;;;;;21.45;14.13;;;14.40;45.20;;;;;;5115592;28;20034;-19
2022/03/18 09:17:28;;;;;;;21.95;13.95;;;14.50;45.40;;;;;;5115998;28;20105;-19
2022/03/18 09:19:54;;;;;;;19.98;13.77;;;14.50;44.90;;;;;;5116188;28;20043;-19
2022/03/18 09:22:21;;;;;;;22.95;13.95;;;14.60;44.70;;;;;;5116028;28;20031;-20
2022/03/18 09:24:47;;;;;;;22.25;13.80;;;14.70;44.40;;;;;;5116301;28;20066;-19
2022/03/18 09:27:16;;;;;;;20.85;12.48;;;14.80;44.00;;;;;;5116002;28;20085;-19
2022/03/18 09:29:43;;;;;;;19.58;12.77;;;14.90;44.40;;;;;;5116312;28;20038;-19
2022/03/18 09:32:10;;;;;;;16.63;11.60;;;15.00;44.00;;;;;;5116379;28;20024;-19
2022/03/18 09:34:35;;;;;;;18.25;12.30;;;15.10;43.80;;;;;;5115684;28;20027;-20
2022/03/18 09:37:02;;;;;;;17.00;11.98;;;15.20;43.50;;;;;;5115818;27;20032;-19
2022/03/18 09:39:29;;;;;;;20.88;12.52;;;15.20;43.40;;;;;;5115596;28;20554;-19
2022/03/18 09:41:56;;;;;;;17.58;12.27;;;15.30;43.50;;;;;;5115750;28;20101;-19
2022/03/18 09:44:22;;;;;;;19.77;13.48;;;15.30;43.60;;;;;;5115577;28;20027;-20
2022/03/18 09:46:51;;;;;;;20.65;13.05;;;15.40;42.90;;;;;;5114345;28;20027;-19
2022/03/18 09:49:18;;;;;;;19.50;12.35;;;15.40;42.80;;;;;;5115847;28;20032;-19
2022/03/18 09:51:47;;;;;;;17.50;11.77;;;15.40;43.00;;;;;;5116117;28;20027;-19
2022/03/18 09:54:14;;;;;;;17.10;11.52;;;15.50;42.70;;;;;;5115505;27;20116;-18
2022/03/18 09:56:42;;;;;;;17.48;11.75;;;15.50;42.90;;;;;;5116087;28;20023;-19
2022/03/18 09:59:09;;;;;;;19.23;12.13;;;15.50;42.80;;;;;;5115321;28;20471;-19
2022/03/18 10:01:35;;;;;;;18.92;12.45;;;15.70;42.90;;;;;;5115690;28;20023;-19
2022/03/18 10:04:12;;;;;;;18.85;11.15;;;15.80;43.00;;;;;;5115607;28;20031;-19
2022/03/18 10:06:43;;;;;;;18.10;12.30;;;15.90;42.90;;;;;;5114085;28;20476;-20
2022/03/18 10:09:11;;;;;;;18.60;12.52;;;16.00;42.70;;;;;;5115178;28;20107;-19
2022/03/18 10:11:37;;;;;;;20.00;12.05;;;16.10;42.30;;;;;;5114025;28;20115;-19
2022/03/18 10:14:06;;;;;;;16.83;11.07;;;16.20;42.40;;;;;;5115160;28;20038;-19
2022/03/18 10:16:32;;;;;;;19.77;11.68;;;16.40;42.10;;;;;;5114603;28;20495;-19
2022/03/18 10:18:59;;;;;;;15.90;11.55;;;16.40;41.70;;;;;;5114919;28;20114;-19
2022/03/18 10:21:25;;;;;;;20.15;12.30;;;16.60;41.50;;;;;;5115276;27;20027;-19
2022/03/18 10:24:07;;;;;;;22.13;12.45;;;16.60;41.20;;;;;;5114792;28;20069;-19
2022/03/18 10:26:39;;;;;;;15.50;10.57;;;16.60;41.30;;;;;;5114702;28;20024;-19
2022/03/18 10:29:11;;;;;;;19.17;11.30;;;16.70;41.30;;;;;;5114838;28;20023;-19
2022/03/18 10:31:45;;;;;;;16.15;10.93;;;16.70;41.00;;;;;;5114803;28;20027;-19
2022/03/18 10:37:08;;;;;;;19.83;11.98;;;16.90;40.80;;;;;;5115002;28;20126;-19
2022/03/18 10:39:40;;;;;;;14.52;10.10;;;16.90;41.10;;;;;;5114339;28;20037;-19
2022/03/18 10:42:10;;;;;;;17.00;11.15;;;17.00;41.30;;;;;;5114887;28;20456;-19
2022/03/18 10:44:59;;;;;;;20.10;12.27;;;17.00;41.10;;;;;;5114703;28;20046;-19
2022/03/18 10:47:43;;;;;;;16.17;10.68;;;17.10;39.80;;;;;;5114798;28;20027;-19
2022/03/18 10:50:11;;;;;;;18.33;11.40;;;17.20;40.60;;;;;;5114455;28;20023;-19
2022/03/18 10:52:40;;;;;;;13.98;10.00;;;17.20;40.10;;;;;;5114079;28;20484;-20
2022/03/18 10:55:19;;;;;;;13.38;8.63;;;17.30;40.70;;;;;;5114586;28;20030;-19
2022/03/18 10:57:50;;;;;;;16.33;10.30;;;17.40;40.20;;;;;;5114275;28;20032;-19
2022/03/18 11:00:23;;;;;;;15.45;10.48;;;17.50;40.00;;;;;;5113964;28;20031;-19
2022/03/18 11:02:52;;;;;;;15.50;10.27;;;17.60;40.00;;;;;;5114284;28;20479;-19
2022/03/18 11:05:21;;;;;;;16.60;10.38;;;17.60;39.90;;;;;;5114343;28;20050;-19
2022/03/18 11:07:51;;;;;;;14.45;9.82;;;17.80;39.30;;;;;;5114311;28;20076;-19
2022/03/18 11:13:12;;;;;;;16.23;11.02;;;17.80;38.30;;;;;;5114575;28;20104;-20
2022/03/18 11:15:43;;;;;;;18.40;10.55;;;17.90;38.60;;;;;;5114049;27;20057;-20
2022/03/18 11:18:11;;;;;;;16.63;10.57;;;18.00;38.60;;;;;;5114385;28;20093;-20
2022/03/18 11:20:43;;;;;;;14.18;9.95;;;18.10;38.40;;;;;;5113689;28;20024;-20
2022/03/18 11:23:16;;;;;;;13.63;9.30;;;18.20;38.10;;;;;;5113802;28;20027;-20
2022/03/18 11:25:45;;;;;;;14.18;9.02;;;18.30;38.00;;;;;;5113912;28;20102;-19
2022/03/18 11:28:22;;;;;;;13.73;9.07;;;18.30;37.70;;;;;;5114135;28;20092;-19
2022/03/18 11:31:00;;;;;;;15.32;10.13;;;18.40;37.40;;;;;;5114111;28;20118;-19
2022/03/18 11:33:27;;;;;;;17.02;10.13;;;18.40;36.90;;;;;;5114082;28;20054;-19
2022/03/18 11:35:52;;;;;;;15.77;10.00;;;18.50;37.20;;;;;;5113709;28;20103;-19
2022/03/18 11:38:22;;;;;;;11.48;8.63;;;18.60;36.40;;;;;;5113198;28;20118;-19
2022/03/18 11:40:58;;;;;;;14.60;9.05;;;18.60;36.70;;;;;;5113614;28;20548;-19
2022/03/18 11:43:34;;;;;;;12.48;9.43;;;18.70;36.40;;;;;;5113598;28;20035;-19
2022/03/18 11:46:12;;;;;;;14.23;9.77;;;18.80;36.30;;;;;;5113883;28;20089;-19
2022/03/18 11:48:43;;;;;;;12.55;9.38;;;18.80;35.20;;;;;;5113553;28;20030;-20
2022/03/18 11:51:34;;;;;;;16.42;9.43;;;18.90;36.40;;;;;;5113812;28;20055;-19
2022/03/18 11:54:10;;;;;;;14.75;10.60;;;19.00;35.90;;;;;;5113388;28;20031;-19
2022/03/18 11:56:47;;;;;;;16.52;10.15;;;19.00;35.80;;;;;;5113614;28;20024;-20
2022/03/18 11:59:27;;;;;;;14.27;9.10;;;19.00;35.90;;;;;;5113332;28;20035;-19
2022/03/18 12:02:12;;;;;;;14.55;10.00;;;18.90;35.00;;;;;;5113702;28;20051;-19
2022/03/18 12:04:46;;;;;;;15.43;10.77;;;19.00;35.60;;;;;;5113444;28;20054;-19
2022/03/18 12:07:24;;;;;;;13.13;9.27;;;19.00;34.20;;;;;;5113683;28;20020;-20
2022/03/18 12:09:53;;;;;;;14.45;9.98;;;19.00;35.00;;;;;;5113278;28;20043;-19
2022/03/18 12:12:25;;;;;;;15.55;10.55;;;19.00;34.80;;;;;;5113440;28;20027;-20
2022/03/18 12:14:56;;;;;;;12.82;9.55;;;19.00;35.50;;;;;;5113631;28;20114;-20
2022/03/18 12:17:23;;;;;;;14.68;9.88;;;19.00;35.80;;;;;;5113152;28;20040;-20
2022/03/18 12:19:55;;;;;;;14.65;10.52;;;19.20;35.80;;;;;;5113195;28;20031;-19
2022/03/18 12:22:23;;;;;;;15.77;10.50;;;19.20;35.50;;;;;;5113075;28;20480;-19
2022/03/18 12:24:52;;;;;;;10.93;8.40;;;19.30;35.30;;;;;;5111933;28;20043;-19
2022/03/18 12:27:26;;;;;;;14.52;9.63;;;19.40;35.70;;;;;;5111942;28;20023;-19
2022/03/18 12:29:57;;;;;;;14.63;9.45;;;19.60;35.00;;;;;;5113491;28;20153;-19
2022/03/18 12:32:24;;;;;;;13.75;9.88;;;19.70;35.30;;;;;;5113283;28;20028;-19
2022/03/18 12:34:53;;;;;;;13.68;9.93;;;19.80;35.00;;;;;;5113429;28;20383;-19
2022/03/18 12:37:30;;;;;;;16.08;10.30;;;19.90;35.00;;;;;;5113118;28;20391;-19
2022/03/18 12:40:02;;;;;;;16.55;9.55;;;19.90;34.80;;;;;;5112981;28;20479;-19
2022/03/18 12:42:29;;;;;;;14.90;10.70;;;20.00;34.40;;;;;;5112839;28;20035;-19
2022/03/18 12:44:59;;;;;;;14.52;10.15;;;20.10;34.50;;;;;;5113351;28;20027;-19
2022/03/18 12:47:32;;;;;;;12.82;9.07;;;20.20;34.70;;;;;;5113634;28;20410;-19
2022/03/18 12:50:00;;;;;;;14.43;9.85;;;20.20;34.80;;;;;;5116271;28;20028;-20
2022/03/18 12:52:26;;;;;;;11.30;8.63;;;20.40;34.60;;;;;;5116542;28;20030;-19
2022/03/18 12:55:08;;;;;;;15.10;9.43;;;20.40;34.60;;;;;;5116629;28;20035;-19
2022/03/18 12:57:41;;;;;;;15.93;10.45;;;20.60;33.40;;;;;;5117234;28;20023;-19
2022/03/18 13:00:11;;;;;;;18.48;9.95;;;20.50;33.10;;;;;;5116580;28;20032;-19